Guadalupe, Arizona
Current Conditions -  °F | °C
As of 8:51 PM on Thursday 18 Dec 2014 (Local Time) from KPHX Reporting Station
Clear Clear  
Wind Chill: 54°   Ceiling: Unl
Heat Index: 54°   Visibility: 10mi
Dew Point: 43°   Wind: 3mph
Humidity: 66%   Direction: 230°SW
Pressure: 30.16"   Gusts: NA
Location:  33.364°N, 111.931°W
Report Text: KPHX 190351Z 23003KT 10SM CLR 12/06 A3016 RMK AO2 SLP207 T01220061
Loading
Personal Weather Stations






























Interactive Weather Map New forecast layout! Learn more

10-Day Weather Forecast

Advertisements
Track Severe Weather on mobile